Time;durP1;ratioP1;P1;durP2;ratioP2;P2;SDS_P1;SDS_P2;PMS_P1;PMS_P2;Temp;Humidity;BMP_temperature;BMP_pressure;BME280_temperature;BME280_humidity;BME280_pressure;Samples;Min_cycle;Max_cycle;Signal;HPM_P1;HPM_P2
2022/11/13 00:00:51;;;;;;;;;;;7.10;99.90;;;;;;5049897;28;20020;-71
2022/11/13 00:03:17;;;;;;;;;;;7.00;99.90;;;;;;5051110;28;19944;-71
2022/11/13 00:05:42;;;;;;;;;;;6.90;99.90;;;;;;5033502;28;19932;-72
2022/11/13 00:08:08;;;;;;;;;;;7.10;99.90;;;;;;5052482;28;20387;-73
2022/11/13 00:10:33;;;;;;;;;;;7.00;99.90;;;;;;5054116;28;19920;-72
2022/11/13 00:12:59;;;;;;;;;;;7.20;99.90;;;;;;5072627;28;19963;-71
2022/11/13 00:15:25;;;;;;;;;;;;;;;;;;5070948;28;20275;-71
2022/11/13 00:17:50;;;;;;;;;;;7.00;99.90;;;;;;5070203;28;19935;-71
2022/11/13 00:20:17;;;;;;;;;;;7.00;99.90;;;;;;5056668;28;19925;-71
2022/11/13 00:22:43;;;;;;;;;;;;;;;;;;5052518;28;19921;-71
2022/11/13 00:25:08;;;;;;;;;;;7.00;99.90;;;;;;5057390;28;19925;-71
2022/11/13 00:27:34;;;;;;;;;;;7.00;99.90;;;;;;5071061;28;20305;-72
2022/11/13 00:29:59;;;;;;;;;;;6.90;99.90;;;;;;5072006;28;19920;-71
2022/11/13 00:32:25;;;;;;;;;;;6.90;99.90;;;;;;5054632;28;20328;-71
2022/11/13 00:34:51;;;;;;;;;;;7.20;99.90;;;;;;5070620;28;20011;-71
2022/11/13 00:37:17;;;;;;;;;;;7.00;99.90;;;;;;5071444;28;19967;-71
2022/11/13 00:39:42;;;;;;;;;;;7.10;99.90;;;;;;5072307;28;19927;-72
2022/11/13 00:42:08;;;;;;;;;;;7.00;99.90;;;;;;5056777;28;20394;-72
2022/11/13 00:44:33;;;;;;;;;;;7.10;99.90;;;;;;5050469;28;19931;-71
2022/11/13 00:46:59;;;;;;;;;;;7.00;99.90;;;;;;5051171;28;19927;-71
2022/11/13 00:49:24;;;;;;;;;;;7.60;99.90;;;;;;5051292;28;20329;-72
2022/11/13 00:51:50;;;;;;;;;;;7.40;99.90;;;;;;5051464;28;20409;-72
2022/11/13 00:54:15;;;;;;;;;;;7.40;99.90;;;;;;5050177;28;19974;-71
2022/11/13 00:56:41;;;;;;;;;;;;;;;;;;5052525;28;19964;-71
2022/11/13 00:59:07;;;;;;;;;;;7.60;99.90;;;;;;5040598;28;20426;-70
2022/11/13 01:01:32;;;;;;;;;;;7.40;99.90;;;;;;5064329;28;19931;-72
2022/11/13 01:03:58;;;;;;;;;;;7.50;99.90;;;;;;5048399;28;19921;-71
2022/11/13 01:06:24;;;;;;;;;;;7.50;99.90;;;;;;5039414;28;19920;-72
2022/11/13 01:08:52;;;;;;;;;;;7.50;99.90;;;;;;5055234;28;19928;-71
2022/11/13 01:11:19;;;;;;;;;;;7.70;99.90;;;;;;5038314;28;19921;-72
2022/11/13 01:13:45;;;;;;;;;;;;;;;;;;5064479;28;19921;-71
2022/11/13 01:16:11;;;;;;;;;;;7.70;99.90;;;;;;5075364;28;19966;-71
2022/11/13 01:18:37;;;;;;;;;;;7.60;99.90;;;;;;5075716;28;19963;-71
2022/11/13 01:21:07;;;;;;;;;;;7.60;99.90;;;;;;5057870;28;20418;-72
2022/11/13 01:23:33;;;;;;;;;;;7.80;99.90;;;;;;5057637;28;19920;-71
2022/11/13 01:26:09;;;;;;;;;;;7.40;99.90;;;;;;5073499;28;20432;-71
2022/11/13 01:28:34;;;;;;;;;;;7.70;99.90;;;;;;5074399;28;19920;-71
2022/11/13 01:31:03;;;;;;;;;;;7.60;99.90;;;;;;5055618;28;20310;-71
2022/11/13 01:33:28;;;;;;;;;;;7.60;99.90;;;;;;5054225;28;20405;-72
2022/11/13 01:35:58;;;;;;;;;;;7.60;99.90;;;;;;5053191;28;19924;-71
2022/11/13 01:38:23;;;;;;;;;;;7.60;99.90;;;;;;5054371;28;20282;-71
2022/11/13 01:40:49;;;;;;;;;;;7.70;99.90;;;;;;5054283;28;19921;-72
2022/11/13 01:43:29;;;;;;;;;;;7.60;99.90;;;;;;5054260;28;19920;-71
2022/11/13 01:45:58;;;;;;;;;;;7.70;99.90;;;;;;5054343;28;19924;-71
2022/11/13 01:48:44;;;;;;;;;;;7.70;99.90;;;;;;5037586;28;19920;-71
2022/11/13 01:51:14;;;;;;;;;;;7.50;99.90;;;;;;5055646;28;20345;-72
2022/11/13 01:53:41;;;;;;;;;;;7.70;99.90;;;;;;5054318;28;19921;-72
2022/11/13 01:56:06;;;;;;;;;;;7.50;99.90;;;;;;5053077;28;19925;-71
2022/11/13 01:58:32;;;;;;;;;;;7.70;99.90;;;;;;5072348;28;20336;-72
2022/11/13 02:00:58;;;;;;;;;;;7.50;99.90;;;;;;5073416;28;19935;-71
2022/11/13 02:03:24;;;;;;;;;;;7.60;99.90;;;;;;5071763;28;19974;-71
2022/11/13 02:05:50;;;;;;;;;;;;;;;;;;5056112;28;19924;-71
2022/11/13 02:08:16;;;;;;;;;;;;;;;;;;5073202;28;20023;-71
2022/11/13 02:10:42;;;;;;;;;;;7.60;99.90;;;;;;5074704;28;20348;-71
2022/11/13 02:13:07;;;;;;;;;;;;;;;;;;5072414;28;20447;-71
2022/11/13 02:15:33;;;;;;;;;;;7.50;99.90;;;;;;5072604;28;20011;-71
2022/11/13 02:17:59;;;;;;;;;;;7.80;99.90;;;;;;5071723;28;19946;-72
2022/11/13 02:20:36;;;;;;;;;;;7.60;99.90;;;;;;5073724;28;19935;-72
2022/11/13 02:23:10;;;;;;;;;;;7.40;99.90;;;;;;5074605;28;19921;-72
2022/11/13 02:25:36;;;;;;;;;;;7.70;99.90;;;;;;5073826;28;19932;-72
2022/11/13 02:28:02;;;;;;;;;;;7.60;99.90;;;;;;5056685;28;19921;-72
2022/11/13 02:30:29;;;;;;;;;;;7.50;99.90;;;;;;5074518;28;19930;-72
2022/11/13 02:32:55;;;;;;;;;;;;;;;;;;5074441;28;20006;-72
2022/11/13 02:35:22;;;;;;;;;;;7.40;99.90;;;;;;5053430;28;20551;-72
2022/11/13 02:37:48;;;;;;;;;;;7.50;99.90;;;;;;5074443;28;19952;-72
2022/11/13 02:40:13;;;;;;;;;;;7.70;99.90;;;;;;5056229;28;19966;-72
2022/11/13 02:42:39;;;;;;;;;;;7.50;99.90;;;;;;5073219;28;19986;-72
2022/11/13 02:45:05;;;;;;;;;;;7.40;99.90;;;;;;5073408;28;19976;-72
2022/11/13 02:47:31;;;;;;;;;;;7.60;99.90;;;;;;5072996;28;19920;-72
2022/11/13 02:49:56;;;;;;;;;;;7.60;99.90;;;;;;5070874;28;20432;-72
2022/11/13 02:52:22;;;;;;;;;;;7.50;99.90;;;;;;5074096;28;20378;-72
2022/11/13 02:54:47;;;;;;;;;;;7.60;99.90;;;;;;5040890;28;19920;-72
2022/11/13 02:57:13;;;;;;;;;;;7.70;99.90;;;;;;5052467;28;19921;-72
2022/11/13 02:59:38;;;;;;;;;;;;;;;;;;5052819;28;19973;-72
2022/11/13 03:02:04;;;;;;;;;;;7.60;99.90;;;;;;5064933;28;19921;-72
2022/11/13 03:04:29;;;;;;;;;;;7.60;99.90;;;;;;5053211;28;19935;-72
2022/11/13 03:06:55;;;;;;;;;;;7.50;99.90;;;;;;5052524;28;19959;-72
2022/11/13 03:09:20;;;;;;;;;;;7.50;99.90;;;;;;5053549;28;20378;-73
2022/11/13 03:11:46;;;;;;;;;;;7.60;99.90;;;;;;5061551;28;19968;-72
2022/11/13 03:14:12;;;;;;;;;;;;;;;;;;5071695;28;20010;-72
2022/11/13 03:16:38;;;;;;;;;;;;;;;;;;5073266;28;19927;-72
2022/11/13 03:19:03;;;;;;;;;;;7.60;99.90;;;;;;5064593;28;19925;-73
2022/11/13 03:21:29;;;;;;;;;;;7.60;99.90;;;;;;5053316;28;19971;-72
2022/11/13 03:23:55;;;;;;;;;;;7.60;99.90;;;;;;5059223;28;19920;-72
2022/11/13 03:26:21;;;;;;;;;;;7.70;99.90;;;;;;5062092;28;19928;-72
2022/11/13 03:28:46;;;;;;;;;;;7.70;99.90;;;;;;5063364;28;19920;-72
2022/11/13 03:31:12;;;;;;;;;;;7.70;99.90;;;;;;5055248;28;19928;-72
2022/11/13 03:33:37;;;;;;;;;;;7.50;99.90;;;;;;5054181;28;19945;-72
2022/11/13 03:36:03;;;;;;;;;;;7.60;99.90;;;;;;5051313;28;19927;-72
2022/11/13 03:38:29;;;;;;;;;;;7.60;99.90;;;;;;5053110;28;19920;-72
2022/11/13 03:40:54;;;;;;;;;;;7.50;99.90;;;;;;5052264;28;19943;-72
2022/11/13 03:43:20;;;;;;;;;;;7.70;99.90;;;;;;5051790;28;19921;-72
2022/11/13 03:45:46;;;;;;;;;;;7.70;99.90;;;;;;5050987;28;20046;-72
2022/11/13 03:48:12;;;;;;;;;;;7.90;99.90;;;;;;5061987;28;19943;-72
2022/11/13 03:50:38;;;;;;;;;;;7.80;99.90;;;;;;5071639;28;19920;-72
2022/11/13 03:53:04;;;;;;;;;;;7.80;99.90;;;;;;5071714;28;20408;-72
2022/11/13 03:55:29;;;;;;;;;;;7.80;99.90;;;;;;5052867;28;19920;-72
2022/11/13 03:57:55;;;;;;;;;;;7.70;99.90;;;;;;5071606;28;20291;-72
2022/11/13 04:00:20;;;;;;;;;;;7.60;99.90;;;;;;5071432;28;19920;-72
2022/11/13 04:02:46;;;;;;;;;;;;;;;;;;5054747;28;20044;-72
2022/11/13 04:05:12;;;;;;;;;;;7.60;99.90;;;;;;5068732;28;20512;-72
2022/11/13 04:07:37;;;;;;;;;;;7.80;99.90;;;;;;5071403;28;19921;-72
2022/11/13 04:10:03;;;;;;;;;;;7.60;99.90;;;;;;5071221;28;19921;-72
2022/11/13 04:12:28;;;;;;;;;;;7.70;99.90;;;;;;5072480;28;19973;-72
2022/11/13 04:14:54;;;;;;;;;;;7.80;99.90;;;;;;5070825;28;20335;-72
2022/11/13 04:17:19;;;;;;;;;;;7.80;99.90;;;;;;5071211;28;19921;-72
2022/11/13 04:19:45;;;;;;;;;;;7.80;99.90;;;;;;5071228;28;19920;-72
2022/11/13 04:22:11;;;;;;;;;;;7.80;99.90;;;;;;5052627;28;20305;-72
2022/11/13 04:24:36;;;;;;;;;;;7.60;99.90;;;;;;5050410;28;19982;-72
2022/11/13 04:27:02;;;;;;;;;;;7.60;99.90;;;;;;5051234;28;20021;-72
2022/11/13 04:29:28;;;;;;;;;;;;;;;;;;5034608;28;19921;-72
2022/11/13 04:31:53;;;;;;;;;;;7.80;99.90;;;;;;5051022;28;19921;-72
2022/11/13 04:34:19;;;;;;;;;;;7.80;99.90;;;;;;5050286;28;20529;-72
2022/11/13 04:36:45;;;;;;;;;;;;;;;;;;5051617;28;19972;-72
2022/11/13 04:39:10;;;;;;;;;;;7.60;99.90;;;;;;5051049;28;19921;-72
2022/11/13 04:44:20;;;;;;;;;;;7.50;99.90;;;;;;5050041;28;19932;-72
2022/11/13 04:46:45;;;;;;;;;;;7.60;99.90;;;;;;5052216;28;20294;-72
2022/11/13 04:49:11;;;;;;;;;;;7.70;99.90;;;;;;5051123;28;19982;-72
2022/11/13 04:51:36;;;;;;;;;;;7.70;99.90;;;;;;5050862;28;19931;-72
2022/11/13 04:54:02;;;;;;;;;;;7.60;99.90;;;;;;5051488;28;19924;-72
2022/11/13 04:56:28;;;;;;;;;;;;;;;;;;5050763;28;19928;-72
2022/11/13 04:58:53;;;;;;;;;;;7.70;99.90;;;;;;5052106;28;19936;-72
2022/11/13 05:01:19;;;;;;;;;;;7.80;99.90;;;;;;5050917;28;20549;-72
2022/11/13 05:03:44;;;;;;;;;;;;;;;;;;5050260;28;19928;-72
2022/11/13 05:06:10;;;;;;;;;;;7.80;99.90;;;;;;5050211;28;20366;-72
2022/11/13 05:08:35;;;;;;;;;;;7.60;99.90;;;;;;5035094;28;19968;-72
2022/11/13 05:11:01;;;;;;;;;;;7.60;99.90;;;;;;5072376;28;19920;-72
2022/11/13 05:13:27;;;;;;;;;;;;;;;;;;5071189;28;20040;-72
2022/11/13 05:15:58;;;;;;;;;;;7.90;99.90;;;;;;5061905;28;20004;-72
2022/11/13 05:18:25;;;;;;;;;;;7.80;99.90;;;;;;5050505;28;19971;-73
2022/11/13 05:20:50;;;;;;;;;;;7.90;99.90;;;;;;5050514;28;19921;-72
2022/11/13 05:23:16;;;;;;;;;;;7.80;99.90;;;;;;5050633;28;19920;-72
2022/11/13 05:25:41;;;;;;;;;;;;;;;;;;5052146;28;19925;-72
2022/11/13 05:28:07;;;;;;;;;;;7.70;99.90;;;;;;5051876;28;20034;-72
2022/11/13 05:30:32;;;;;;;;;;;7.70;99.90;;;;;;5050530;28;19927;-72
2022/11/13 05:32:58;;;;;;;;;;;7.70;99.90;;;;;;5051717;28;19920;-72
2022/11/13 05:35:23;;;;;;;;;;;7.60;99.90;;;;;;5049613;28;19966;-72
2022/11/13 05:37:49;;;;;;;;;;;7.80;99.90;;;;;;5033910;28;20571;-72
2022/11/13 05:40:14;;;;;;;;;;;7.70;99.90;;;;;;5050341;28;19964;-72
2022/11/13 05:42:40;;;;;;;;;;;;;;;;;;5051905;28;19936;-72
2022/11/13 05:45:06;;;;;;;;;;;7.60;99.90;;;;;;5049837;28;19924;-72
2022/11/13 05:47:32;;;;;;;;;;;7.60;99.90;;;;;;5053643;28;19963;-72
2022/11/13 05:49:57;;;;;;;;;;;7.50;99.90;;;;;;5063319;28;20019;-72
2022/11/13 05:52:23;;;;;;;;;;;;;;;;;;5065450;28;19928;-72
2022/11/13 05:54:49;;;;;;;;;;;7.60;99.90;;;;;;5064478;28;19921;-72
2022/11/13 05:57:14;;;;;;;;;;;7.60;99.90;;;;;;5037982;28;19996;-72
2022/11/13 05:59:41;;;;;;;;;;;;;;;;;;5038480;28;19920;-72
2022/11/13 06:02:06;;;;;;;;;;;7.40;99.90;;;;;;5055481;28;19921;-72
2022/11/13 06:04:32;;;;;;;;;;;7.40;99.90;;;;;;5053087;28;19932;-72
2022/11/13 06:06:57;;;;;;;;;;;7.40;99.90;;;;;;5063711;28;19967;-72
2022/11/13 06:09:22;;;;;;;;;;;7.60;99.90;;;;;;5074190;28;19921;-73
2022/11/13 06:11:48;;;;;;;;;;;;;;;;;;5074988;28;19920;-72
2022/11/13 06:14:14;;;;;;;;;;;;;;;;;;5072715;28;19925;-72
2022/11/13 06:16:40;;;;;;;;;;;7.40;99.90;;;;;;5056858;28;19927;-72
2022/11/13 06:19:07;;;;;;;;;;;7.50;99.90;;;;;;5055081;28;19925;-72
2022/11/13 06:21:34;;;;;;;;;;;7.40;99.90;;;;;;5074964;28;19927;-72
2022/11/13 06:24:00;;;;;;;;;;;7.30;99.90;;;;;;5058792;28;19920;-73
2022/11/13 06:26:30;;;;;;;;;;;7.30;99.90;;;;;;5053279;28;19921;-72
2022/11/13 06:28:56;;;;;;;;;;;7.30;99.90;;;;;;5063333;28;19924;-72
2022/11/13 06:31:22;;;;;;;;;;;;;;;;;;5064696;28;19927;-72
2022/11/13 06:33:47;;;;;;;;;;;7.40;99.90;;;;;;5035921;28;19929;-72
2022/11/13 06:36:17;;;;;;;;;;;7.30;99.90;;;;;;5053135;28;19921;-73
2022/11/13 06:38:43;;;;;;;;;;;7.40;99.90;;;;;;5071693;28;19920;-72
2022/11/13 06:41:09;;;;;;;;;;;7.40;99.90;;;;;;5075316;28;19927;-72
2022/11/13 06:43:35;;;;;;;;;;;7.30;99.90;;;;;;5072909;28;19927;-73
2022/11/13 06:46:04;;;;;;;;;;;7.30;99.90;;;;;;5073606;28;19928;-73
2022/11/13 06:48:30;;;;;;;;;;;7.40;99.90;;;;;;5072665;28;19920;-72
2022/11/13 06:50:59;;;;;;;;;;;7.30;99.90;;;;;;5073033;28;19986;-72
2022/11/13 06:53:24;;;;;;;;;;;7.40;99.90;;;;;;5073279;28;19920;-75
2022/11/13 06:55:50;;;;;;;;;;;7.20;99.90;;;;;;5073037;28;19920;-73
2022/11/13 06:58:15;;;;;;;;;;;7.20;99.90;;;;;;5072612;28;19921;-73
2022/11/13 07:00:41;;;;;;;;;;;;;;;;;;5073382;28;20340;-74
2022/11/13 07:03:14;;;;;;;;;;;7.30;99.90;;;;;;5071689;28;20444;-73
2022/11/13 07:05:39;;;;;;;;;;;7.30;99.90;;;;;;5051737;28;20410;-73
2022/11/13 07:08:05;;;;;;;;;;;7.30;99.90;;;;;;5053701;28;19970;-72
2022/11/13 07:10:30;;;;;;;;;;;7.50;99.90;;;;;;5052268;28;19921;-72
2022/11/13 07:12:56;;;;;;;;;;;;;;;;;;5053474;28;19924;-71
2022/11/13 07:15:22;;;;;;;;;;;7.30;99.90;;;;;;5052107;28;19920;-71
2022/11/13 07:17:47;;;;;;;;;;;7.30;99.90;;;;;;5052484;28;19930;-71
2022/11/13 07:20:13;;;;;;;;;;;7.10;99.90;;;;;;5052316;28;19920;-73
2022/11/13 07:22:38;;;;;;;;;;;;;;;;;;5052952;28;19927;-74
2022/11/13 07:25:04;;;;;;;;;;;7.20;99.90;;;;;;5050251;28;20144;-73
2022/11/13 07:27:30;;;;;;;;;;;7.30;99.90;;;;;;5051214;28;19921;-74
2022/11/13 07:29:55;;;;;;;;;;;7.40;99.90;;;;;;5051938;28;19974;-73
2022/11/13 07:32:21;;;;;;;;;;;7.40;99.90;;;;;;5052467;28;19920;-74
2022/11/13 07:34:46;;;;;;;;;;;7.30;99.90;;;;;;5051173;28;19974;-73
2022/11/13 07:37:12;;;;;;;;;;;;;;;;;;5052626;28;19931;-73
2022/11/13 07:39:38;;;;;;;;;;;;;;;;;;5051639;28;19924;-73
2022/11/13 07:42:04;;;;;;;;;;;;;;;;;;5051653;28;19936;-73
2022/11/13 07:44:29;;;;;;;;;;;7.30;99.90;;;;;;5042342;28;19979;-74
2022/11/13 07:46:55;;;;;;;;;;;7.50;99.90;;;;;;5050162;28;19920;-74
2022/11/13 07:49:21;;;;;;;;;;;;;;;;;;5052338;28;19974;-74
2022/11/13 07:51:46;;;;;;;;;;;;;;;;;;5053421;28;20055;-73
2022/11/13 07:54:12;;;;;;;;;;;7.80;99.90;;;;;;5051518;28;19921;-73
2022/11/13 07:56:37;;;;;;;;;;;7.70;99.90;;;;;;5052688;28;19921;-71
2022/11/13 07:59:03;;;;;;;;;;;;;;;;;;5052655;28;19921;-72
2022/11/13 08:01:29;;;;;;;;;;;;;;;;;;5051143;28;20045;-72
2022/11/13 08:03:55;;;;;;;;;;;;;;;;;;5049054;28;20417;-72
2022/11/13 08:06:22;;;;;;;;;;;7.90;99.90;;;;;;5052064;28;20175;-72
2022/11/13 08:08:48;;;;;;;;;;;7.90;99.90;;;;;;5049959;28;20388;-72
2022/11/13 08:11:14;;;;;;;;;;;8.30;99.90;;;;;;5054913;28;20008;-71
2022/11/13 08:13:39;;;;;;;;;;;8.20;99.90;;;;;;5051764;28;19920;-72
2022/11/13 08:16:05;;;;;;;;;;;8.30;99.90;;;;;;5063052;28;19933;-72
2022/11/13 08:18:31;;;;;;;;;;;8.20;99.90;;;;;;5066700;28;19920;-72
2022/11/13 08:20:56;;;;;;;;;;;;;;;;;;5062351;28;19924;-72
2022/11/13 08:23:22;;;;;;;;;;;;;;;;;;5052064;28;20417;-72
2022/11/13 08:25:48;;;;;;;;;;;8.40;99.90;;;;;;5051867;28;19925;-72
2022/11/13 08:28:13;;;;;;;;;;;8.60;99.90;;;;;;5051195;28;19944;-72
2022/11/13 08:30:41;;;;;;;;;;;8.40;99.90;;;;;;5051070;28;19949;-73
2022/11/13 08:33:07;;;;;;;;;;;;;;;;;;5051559;28;19924;-73
2022/11/13 08:35:33;;;;;;;;;;;8.80;99.90;;;;;;5050090;28;20428;-72
2022/11/13 08:38:02;;;;;;;;;;;8.80;99.90;;;;;;5053490;28;19925;-72
2022/11/13 08:40:27;;;;;;;;;;;8.90;99.90;;;;;;5052217;28;20360;-72
2022/11/13 08:42:57;;;;;;;;;;;8.90;99.90;;;;;;5052359;28;19927;-72
2022/11/13 08:45:22;;;;;;;;;;;9.10;99.90;;;;;;5050047;28;19929;-72
2022/11/13 08:47:48;;;;;;;;;;;9.30;99.90;;;;;;5034301;28;19921;-72
2022/11/13 08:50:13;;;;;;;;;;;9.20;99.90;;;;;;5051858;28;19921;-72
2022/11/13 08:52:38;;;;;;;;;;;9.30;99.90;;;;;;5068624;28;19932;-71
2022/11/13 08:55:04;;;;;;;;;;;;;;;;;;5066261;28;20331;-72
2022/11/13 08:57:30;;;;;;;;;;;9.50;99.90;;;;;;5044527;28;19925;-72
2022/11/13 08:59:55;;;;;;;;;;;9.70;99.90;;;;;;5046722;28;20601;-72
2022/11/13 09:02:21;;;;;;;;;;;9.70;99.90;;;;;;5046965;28;19925;-73
2022/11/13 09:04:46;;;;;;;;;;;9.60;99.90;;;;;;5023807;28;20310;-72
2022/11/13 09:07:12;;;;;;;;;;;9.70;99.90;;;;;;5033116;28;19924;-72
2022/11/13 09:09:37;;;;;;;;;;;10.00;99.90;;;;;;5047283;28;19924;-72
2022/11/13 09:12:03;;;;;;;;;;;10.10;99.90;;;;;;5046187;28;20010;-72
2022/11/13 09:14:29;;;;;;;;;;;9.90;99.90;;;;;;5025223;28;19925;-72
2022/11/13 09:16:55;;;;;;;;;;;10.10;99.90;;;;;;5043642;28;20404;-72
2022/11/13 09:19:20;;;;;;;;;;;10.00;99.90;;;;;;5046840;28;19975;-73
2022/11/13 09:21:46;;;;;;;;;;;10.20;99.90;;;;;;5045662;28;20019;-72
2022/11/13 09:24:11;;;;;;;;;;;10.20;99.90;;;;;;5050215;28;19921;-72
2022/11/13 09:26:36;;;;;;;;;;;10.30;99.90;;;;;;5051410;28;19928;-73
2022/11/13 09:29:02;;;;;;;;;;;10.30;99.90;;;;;;5049929;28;19928;-72
2022/11/13 09:31:28;;;;;;;;;;;;;;;;;;5049124;28;19925;-73
2022/11/13 09:33:53;;;;;;;;;;;10.60;99.90;;;;;;5048328;28;19931;-72
2022/11/13 09:36:19;;;;;;;;;;;10.60;99.90;;;;;;5049169;28;20641;-72
2022/11/13 09:38:44;;;;;;;;;;;10.70;99.90;;;;;;5047830;28;19928;-72
2022/11/13 09:41:11;;;;;;;;;;;10.70;99.90;;;;;;5050250;28;20410;-72
2022/11/13 09:43:53;;;;;;;;;;;10.60;99.90;;;;;;5045232;28;20573;-72
2022/11/13 09:46:34;;;;;;;;;;;10.60;99.90;;;;;;5047364;28;20405;-73
2022/11/13 09:49:14;;;;;;;;;;;10.70;99.90;;;;;;5044056;28;20023;-73
2022/11/13 09:51:41;;;;;;;;;;;10.70;99.90;;;;;;5033384;28;20403;-72
2022/11/13 09:54:10;;;;;;;;;;;11.00;99.90;;;;;;5050560;28;20012;-73
2022/11/13 09:56:41;;;;;;;;;;;11.00;99.90;;;;;;5049035;28;19948;-75
2022/11/13 09:59:25;;;;;;;;;;;10.90;99.90;;;;;;5048602;28;19932;-72
2022/11/13 10:01:54;;;;;;;;;;;10.90;99.90;;;;;;5047059;28;20446;-73
2022/11/13 10:04:39;;;;;;;;;;;10.90;99.90;;;;;;5020472;28;19987;-73
2022/11/13 10:07:05;;;;;;;;;;;11.00;99.90;;;;;;5039082;28;19964;-72
2022/11/13 10:09:54;;;;;;;;;;;11.10;99.90;;;;;;5050493;28;19975;-74
2022/11/13 10:12:20;;;;;;;;;;;11.50;99.90;;;;;;5030167;28;20035;-73
2022/11/13 10:14:46;;;;;;;;;;;;;;;;;;5054688;28;20026;-72
2022/11/13 10:17:12;;;;;;;;;;;11.80;99.90;;;;;;5050173;28;20210;-73
2022/11/13 10:19:49;;;;;;;;;;;11.60;99.90;;;;;;5032542;28;19928;-74
2022/11/13 10:22:15;;;;;;;;;;;;;;;;;;5050337;28;20385;-73
2022/11/13 10:24:42;;;;;;;;;;;11.60;99.90;;;;;;5048744;28;19929;-73
2022/11/13 10:27:08;;;;;;;;;;;11.80;99.90;;;;;;5054446;28;20019;-73
2022/11/13 10:29:34;;;;;;;;;;;11.80;99.90;;;;;;5048507;28;20031;-72
2022/11/13 10:32:13;;;;;;;;;;;11.80;99.90;;;;;;5048545;28;19948;-73
2022/11/13 10:34:40;;;;;;;;;;;11.90;99.90;;;;;;5046809;28;20039;-73
2022/11/13 10:37:18;;;;;;;;;;;12.00;99.90;;;;;;5049832;28;19924;-72
2022/11/13 10:39:44;;;;;;;;;;;12.00;99.90;;;;;;5047781;28;19928;-73
2022/11/13 10:42:26;;;;;;;;;;;12.20;99.90;;;;;;5050039;28;19932;-73
2022/11/13 10:44:56;;;;;;;;;;;12.00;99.90;;;;;;5047284;28;20341;-73
2022/11/13 10:47:22;;;;;;;;;;;12.20;99.90;;;;;;5048696;28;19928;-72
2022/11/13 10:49:48;;;;;;;;;;;12.20;99.90;;;;;;5048325;28;19920;-72
2022/11/13 10:52:24;;;;;;;;;;;12.40;99.90;;;;;;5050151;28;20390;-72
2022/11/13 10:54:49;;;;;;;;;;;12.50;99.90;;;;;;5046976;28;19935;-72
2022/11/13 10:57:29;;;;;;;;;;;12.30;99.90;;;;;;5051795;28;19924;-72
2022/11/13 10:59:55;;;;;;;;;;;12.60;99.90;;;;;;5046491;28;20019;-72
2022/11/13 11:02:24;;;;;;;;;;;12.20;99.90;;;;;;5048469;28;19925;-72
2022/11/13 11:05:00;;;;;;;;;;;12.60;99.90;;;;;;5014937;28;19932;-72
2022/11/13 11:07:26;;;;;;;;;;;12.50;99.90;;;;;;5049896;28;20283;-72
2022/11/13 11:09:51;;;;;;;;;;;12.60;99.90;;;;;;5045406;28;20264;-73
2022/11/13 11:12:22;;;;;;;;;;;12.60;99.90;;;;;;5046771;28;19963;-74
2022/11/13 11:14:57;;;;;;;;;;;12.70;99.90;;;;;;5048957;28;19927;-71
2022/11/13 11:17:42;;;;;;;;;;;12.70;99.90;;;;;;5048305;28;19929;-72
2022/11/13 11:20:25;;;;;;;;;;;12.90;99.90;;;;;;5020307;28;19960;-72
2022/11/13 11:22:53;;;;;;;;;;;12.80;99.90;;;;;;5047760;28;19921;-72
2022/11/13 11:25:19;;;;;;;;;;;13.00;99.90;;;;;;5047663;28;19925;-72
2022/11/13 11:27:46;;;;;;;;;;;12.80;99.90;;;;;;5047829;28;20051;-72
2022/11/13 11:30:19;;;;;;;;;;;13.60;99.90;;;;;;5048062;28;19925;-72
2022/11/13 11:33:00;;;;;;;;;;;12.80;99.90;;;;;;5046747;28;19954;-72
2022/11/13 11:35:37;;;;;;;;;;;12.80;99.90;;;;;;5041678;28;19924;-72
2022/11/13 11:38:10;;;;;;;;;;;12.70;99.90;;;;;;5028313;28;19990;-72
2022/11/13 11:40:43;;;;;;;;;;;12.60;99.90;;;;;;5047169;28;19975;-73
2022/11/13 11:43:12;;;;;;;;;;;12.50;99.90;;;;;;5045523;28;20406;-73
2022/11/13 11:45:41;;;;;;;;;;;12.80;99.90;;;;;;5047353;28;19925;-72
2022/11/13 11:48:11;;;;;;;;;;;12.70;99.90;;;;;;5050124;28;19924;-72
2022/11/13 11:50:38;;;;;;;;;;;12.60;99.90;;;;;;5051088;28;19927;-73
2022/11/13 11:53:04;;;;;;;;;;;12.90;99.90;;;;;;5034621;28;20408;-71
2022/11/13 11:55:29;;;;;;;;;;;12.70;99.90;;;;;;5048420;28;20003;-72
2022/11/13 11:57:57;;;;;;;;;;;;;;;;;;5047375;28;20436;-72
2022/11/13 12:00:23;;;;;;;;;;;;;;;;;;5030638;28;19921;-72
2022/11/13 12:02:49;;;;;;;;;;;;;;;;;;5064222;28;19946;-72
2022/11/13 12:05:15;;;;;;;;;;;;;;;;;;5049182;28;19924;-72
2022/11/13 12:07:41;;;;;;;;;;;;;;;;;;5059926;28;19974;-72
2022/11/13 12:10:07;;;;;;;;;;;;;;;;;;5058884;28;19920;-72
2022/11/13 12:12:33;;;;;;;;;;;;;;;;;;5051055;28;19964;-72
2022/11/13 12:14:58;;;;;;;;;;;13.40;99.90;;;;;;5029141;28;19928;-73
2022/11/13 12:17:43;;;;;;;;;;;13.40;99.90;;;;;;5046610;28;19971;-72
2022/11/13 12:20:18;;;;;;;;;;;13.50;99.90;;;;;;5051438;28;19921;-72
2022/11/13 12:23:19;;;;;;;;;;;13.40;99.90;;;;;;5051370;28;19927;-72
2022/11/13 12:25:48;;;;;;;;;;;13.30;99.90;;;;;;4976158;28;20029;-72
2022/11/13 12:28:14;;;;;;;;;;;13.40;99.90;;;;;;5039109;28;19921;-72
2022/11/13 12:30:46;;;;;;;;;;;13.80;99.90;;;;;;4988802;28;1785171;-72
2022/11/13 12:33:30;;;;;;;;;;;13.60;99.90;;;;;;5032912;28;19928;-72
2022/11/13 12:35:57;;;;;;;;;;;13.60;99.90;;;;;;5051415;28;19921;-72
2022/11/13 12:38:43;;;;;;;;;;;13.50;99.90;;;;;;5047536;28;19928;-72
2022/11/13 12:41:15;;;;;;;;;;;13.40;99.90;;;;;;5049867;28;20011;-73
2022/11/13 12:43:46;;;;;;;;;;;13.70;99.90;;;;;;5031743;28;20379;-72
2022/11/13 12:46:12;;;;;;;;;;;13.60;99.90;;;;;;5051886;28;19924;-72
2022/11/13 12:48:39;;;;;;;;;;;13.60;99.90;;;;;;5049143;28;19932;-72
2022/11/13 12:51:12;;;;;;;;;;;13.90;99.90;;;;;;5033205;28;19921;-74
2022/11/13 12:53:43;;;;;;;;;;;13.80;99.90;;;;;;5052939;28;20287;-73
2022/11/13 12:56:13;;;;;;;;;;;13.50;99.90;;;;;;5056449;28;19921;-72
2022/11/13 12:58:39;;;;;;;;;;;13.60;99.90;;;;;;5054652;28;20468;-72
2022/11/13 13:01:10;;;;;;;;;;;13.50;99.90;;;;;;5054379;28;20019;-72
2022/11/13 13:03:42;;;;;;;;;;;13.30;99.90;;;;;;5054511;28;19921;-72
2022/11/13 13:06:13;;;;;;;;;;;13.40;99.90;;;;;;5052318;28;19935;-72
2022/11/13 13:08:55;;;;;;;;;;;13.40;99.90;;;;;;5057050;28;19928;-72
2022/11/13 13:11:29;;;;;;;;;;;13.40;99.90;;;;;;5051253;28;19929;-72
2022/11/13 13:14:00;;;;;;;;;;;13.70;99.90;;;;;;5034056;28;19921;-72
2022/11/13 13:16:28;;;;;;;;;;;13.20;99.90;;;;;;5048349;28;19920;-72
2022/11/13 13:19:04;;;;;;;;;;;13.30;99.90;;;;;;5068419;28;19928;-72
2022/11/13 13:21:38;;;;;;;;;;;13.40;99.90;;;;;;5064116;28;19964;-72
2022/11/13 13:24:08;;;;;;;;;;;14.60;99.90;;;;;;5063519;28;19924;-72
2022/11/13 13:26:42;;;;;;;;;;;13.40;99.90;;;;;;5056169;28;19932;-72
2022/11/13 13:29:20;;;;;;;;;;;13.30;99.90;;;;;;5053348;28;19948;-72
2022/11/13 13:31:51;;;;;;;;;;;13.50;99.90;;;;;;5055657;28;19932;-72
2022/11/13 13:34:36;;;;;;;;;;;13.50;99.90;;;;;;5053531;28;20009;-72
2022/11/13 13:37:11;;;;;;;;;;;13.60;99.90;;;;;;5054119;28;20423;-72
2022/11/13 13:39:48;;;;;;;;;;;13.30;99.90;;;;;;5054215;28;20278;-72
2022/11/13 13:42:33;;;;;;;;;;;13.60;99.90;;;;;;5054654;28;20000;-72
2022/11/13 13:45:13;;;;;;;;;;;13.20;99.90;;;;;;5052381;28;19928;-72
2022/11/13 13:47:42;;;;;;;;;;;13.30;99.90;;;;;;5053405;28;20003;-72
2022/11/13 13:50:13;;;;;;;;;;;13.40;99.90;;;;;;5053048;28;20409;-72
2022/11/13 13:52:38;;;;;;;;;;;13.30;99.90;;;;;;5054974;28;20367;-72
2022/11/13 13:55:05;;;;;;;;;;;13.20;99.90;;;;;;5054432;28;19921;-72
2022/11/13 13:57:31;;;;;;;;;;;13.30;99.90;;;;;;5054782;28;20016;-72
2022/11/13 13:59:56;;;;;;;;;;;13.30;99.90;;;;;;5062964;28;20011;-72
2022/11/13 14:02:22;;;;;;;;;;;13.50;99.90;;;;;;5060770;28;19960;-72
2022/11/13 14:04:49;;;;;;;;;;;13.50;99.90;;;;;;5053596;28;19952;-72
2022/11/13 14:07:19;;;;;;;;;;;13.50;99.90;;;;;;5053894;28;19948;-72
2022/11/13 14:09:45;;;;;;;;;;;13.20;99.90;;;;;;5052095;28;19972;-72
2022/11/13 14:12:18;;;;;;;;;;;13.40;99.90;;;;;;5054741;28;20002;-72
2022/11/13 14:14:43;;;;;;;;;;;13.20;99.90;;;;;;5036848;28;19921;-73
2022/11/13 14:17:10;;;;;;;;;;;13.20;99.90;;;;;;5053318;28;19921;-72
2022/11/13 14:19:35;;;;;;;;;;;13.10;99.90;;;;;;5053571;28;19928;-72
2022/11/13 14:22:02;;;;;;;;;;;13.80;99.90;;;;;;5053306;28;20400;-72
2022/11/13 14:24:32;;;;;;;;;;;13.00;99.90;;;;;;5052607;28;19932;-72
2022/11/13 14:26:58;;;;;;;;;;;13.20;99.90;;;;;;5054600;28;20034;-72
2022/11/13 14:29:27;;;;;;;;;;;13.10;99.90;;;;;;5052924;28;19956;-72
2022/11/13 14:31:52;;;;;;;;;;;13.20;99.90;;;;;;5055120;28;19920;-72
2022/11/13 14:34:19;;;;;;;;;;;13.00;99.90;;;;;;5035702;28;20382;-72
2022/11/13 14:36:47;;;;;;;;;;;13.10;99.90;;;;;;5052775;28;20367;-72
2022/11/13 14:39:19;;;;;;;;;;;13.20;99.90;;;;;;5053205;28;20294;-72
2022/11/13 14:41:48;;;;;;;;;;;13.20;99.90;;;;;;5052809;28;19927;-72
2022/11/13 14:44:23;;;;;;;;;;;13.00;99.90;;;;;;5053157;28;19920;-72
2022/11/13 14:46:57;;;;;;;;;;;13.10;99.90;;;;;;5053768;28;20121;-72